Ellinwood, Kansas
Current Conditions -  °F | °C
As of 3:35 PM on Monday 24 Nov 2014 (Local Time) from KGBD Reporting Station
Clear Clear  
Wind Chill: 50°   Ceiling: Unl
Heat Index: 50°   Visibility: 10mi
Dew Point: 14°   Wind: 20mph
Humidity: 24%   Direction: 340°NNW
Pressure: 29.95"   Gusts: 23mph
Location:  38.36°N, 98.58°W
Report Text: KGBD 242135Z AUTO 34017G20KT 10SM CLR 10/M10 A2995 RMK AO1
Loading
Personal Weather Stations






























Interactive Weather Map New forecast layout! Learn more

10-Day Weather Forecast

Advertisements
Track Severe Weather on mobile